Time;durP1;ratioP1;P1;durP2;ratioP2;P2;SDS_P1;SDS_P2;PMS_P1;PMS_P2;Temp;Humidity;BMP_temperature;BMP_pressure;BME280_temperature;BME280_humidity;BME280_pressure;Samples;Min_cycle;Max_cycle;Signal;HPM_P1;HPM_P2
2022/01/12 00:00:55;;;;;;;105.22;34.13;;;;;;;;;;4993270;28;20045;-66
2022/01/12 00:03:21;;;;;;;97.63;33.58;;;;;;;;;;4993652;28;20137;-67
2022/01/12 00:05:47;;;;;;;94.88;32.05;;;;;;;;;;4994054;28;20132;-66
2022/01/12 00:08:14;;;;;;;94.63;33.08;;;;;;;;;;4994201;28;20045;-66
2022/01/12 00:10:40;;;;;;;105.63;35.45;;;;;;;;;;4995955;28;20200;-66
2022/01/12 00:13:06;;;;;;;99.38;33.00;;;4.40;99.90;;;;;;4997785;28;20042;-66
2022/01/12 00:15:32;;;;;;;95.60;32.67;;;;;;;;;;4997300;28;20042;-67
2022/01/12 00:17:58;;;;;;;86.15;32.33;;;;;;;;;;4997229;28;20506;-66
2022/01/12 00:20:24;;;;;;;106.45;33.40;;;;;;;;;;4996579;28;20034;-66
2022/01/12 00:22:51;;;;;;;101.80;31.95;;;4.40;99.90;;;;;;4997162;28;20483;-66
2022/01/12 00:33:20;;;;;;;113.95;34.65;;;4.60;99.90;;;;;;4999563;28;20050;-74
2022/01/12 00:35:47;;;;;;;104.70;33.88;;;;;;;;;;4996877;28;20073;-73
2022/01/12 00:38:13;;;;;;;112.50;35.58;;;;;;;;;;4997100;28;20041;-72
2022/01/12 00:40:42;;;;;;;101.30;33.67;;;4.50;99.90;;;;;;4996471;28;20034;-72
2022/01/12 00:43:08;;;;;;;109.97;34.67;;;;;;;;;;4996824;28;20540;-74
2022/01/12 00:45:37;;;;;;;157.88;42.25;;;4.60;99.90;;;;;;4996795;28;20041;-74
2022/01/12 00:48:03;;;;;;;102.30;35.15;;;;;;;;;;4996682;28;20520;-73
2022/01/12 00:50:29;;;;;;;107.32;34.03;;;;;;;;;;5012824;28;20049;-73
2022/01/12 00:52:55;;;;;;;92.47;30.65;;;;;;;;;;4996558;28;20044;-73
2022/01/12 00:55:21;;;;;;;131.48;35.58;;;;;;;;;;4996628;28;20038;-72
2022/01/12 00:57:47;;;;;;;122.90;37.35;;;4.40;99.90;;;;;;4996199;28;20044;-73
2022/01/12 01:00:13;;;;;;;110.43;34.78;;;4.50;99.90;;;;;;4996243;28;20041;-76
2022/01/12 01:02:39;;;;;;;115.00;34.38;;;;;;;;;;4996666;28;20058;-76
2022/01/12 01:05:06;;;;;;;128.52;39.30;;;;;;;;;;4996381;28;20041;-75
2022/01/12 01:07:31;;;;;;;104.22;34.80;;;4.40;99.90;;;;;;4996193;28;20042;-74
2022/01/12 01:10:06;;;;;;;119.68;35.95;;;4.30;99.90;;;;;;4996342;28;20053;-76
2022/01/12 01:12:34;;;;;;;128.40;35.42;;;;;;;;;;4996648;28;20037;-75
2022/01/12 01:15:07;;;;;;;196.50;42.65;;;4.50;99.90;;;;;;4996281;28;20092;-76
2022/01/12 01:25:41;;;;;;;191.68;38.53;;;4.50;99.90;;;;;;5012109;28;20071;-76
2022/01/12 01:28:07;;;;;;;316.35;52.78;;;4.50;99.90;;;;;;4996068;28;20088;-76
2022/01/12 01:30:36;;;;;;;242.52;43.10;;;4.40;99.90;;;;;;4995663;28;20034;-76
2022/01/12 01:33:07;;;;;;;249.02;48.00;;;;;;;;;;4996117;28;20030;-76
2022/01/12 01:35:34;;;;;;;248.07;46.45;;;;;;;;;;4995782;28;20125;-74
2022/01/12 01:38:01;;;;;;;230.60;49.70;;;;;;;;;;4995776;28;20037;-76
2022/01/12 01:40:30;;;;;;;193.15;42.20;;;;;;;;;;4995317;28;20533;-75
2022/01/12 01:53:40;;;;;;;208.52;45.50;;;4.60;99.90;;;;;;5011763;28;20046;-76
2022/01/12 01:56:09;;;;;;;199.88;44.30;;;;;;;;;;4995347;28;20382;-76
2022/01/12 01:58:35;;;;;;;279.33;54.42;;;;;;;;;;4995367;28;20049;-75
2022/01/12 02:01:01;;;;;;;197.35;46.75;;;;;;;;;;4995031;28;20057;-75
2022/01/12 02:03:29;;;;;;;140.07;41.45;;;4.40;99.90;;;;;;4995224;28;20046;-76
2022/01/12 02:05:55;;;;;;;156.05;43.70;;;4.50;99.90;;;;;;4995163;28;20046;-74
2022/01/12 02:08:21;;;;;;;172.98;41.95;;;4.50;99.90;;;;;;4995092;28;20390;-75
2022/01/12 02:10:52;;;;;;;168.45;44.97;;;;;;;;;;4995044;28;20096;-75
2022/01/12 02:13:18;;;;;;;132.80;41.90;;;;;;;;;;4995107;28;20089;-76
2022/01/12 02:15:46;;;;;;;156.25;45.83;;;;;;;;;;4995117;28;20041;-75
2022/01/12 02:35:34;;;;;;;116.03;36.22;;;4.50;99.90;;;;;;5010296;28;20042;-75
2022/01/12 02:40:27;;;;;;;124.05;35.78;;;;;;;;;;5010725;28;20053;-75
2022/01/12 02:43:10;;;;;;;143.55;35.97;;;;;;;;;;4994757;28;20108;-75
2022/01/12 02:53:49;;;;;;;124.65;37.10;;;;;;;;;;5010858;28;20409;-74
2022/01/12 02:56:23;;;;;;;120.72;37.17;;;;;;;;;;4994318;28;20567;-75
2022/01/12 02:58:50;;;;;;;149.52;37.65;;;4.40;99.90;;;;;;4994304;28;20037;-75
2022/01/12 03:03:46;;;;;;;133.98;36.20;;;4.60;99.90;;;;;;5010844;28;20505;-76
2022/01/12 03:06:17;;;;;;;110.45;32.38;;;;;;;;;;4994198;28;20532;-75
2022/01/12 03:08:43;;;;;;;130.18;36.65;;;;;;;;;;4994372;28;20057;-76
2022/01/12 03:11:12;;;;;;;139.13;35.92;;;4.60;99.90;;;;;;4994005;28;20131;-76
2022/01/12 03:13:38;;;;;;;127.93;36.08;;;;;;;;;;4994323;28;20045;-75
2022/01/12 03:16:12;;;;;;;102.45;31.35;;;;;;;;;;4994389;28;20107;-75
2022/01/12 03:18:38;;;;;;;127.10;33.90;;;4.50;99.90;;;;;;4994032;28;20042;-76
2022/01/12 03:21:05;;;;;;;152.63;39.45;;;4.30;99.90;;;;;;4994215;28;20037;-76
2022/01/12 03:23:31;;;;;;;101.60;30.80;;;4.40;99.90;;;;;;4994339;28;20046;-75
2022/01/12 03:25:58;;;;;;;121.03;34.22;;;;;;;;;;4994195;28;20041;-76
2022/01/12 03:28:24;;;;;;;103.05;30.83;;;;;;;;;;4994119;28;20052;-75
2022/01/12 03:36:23;;;;;;;99.15;28.13;;;;;;;;;;5010584;28;20387;-76
2022/01/12 03:38:41;;;;;;;122.93;33.30;;;;;;;;;;5010451;28;20049;-75
2022/01/12 03:41:07;;;;;;;85.82;28.58;;;;;;;;;;4994209;28;20034;-75
2022/01/12 03:43:33;;;;;;;90.28;28.55;;;;;;;;;;4993625;28;20687;-76
2022/01/12 03:45:59;;;;;;;93.28;28.33;;;;;;;;;;5013312;28;20046;-75
2022/01/12 03:48:25;;;;;;;121.45;29.50;;;;;;;;;;5014249;28;20042;-75
2022/01/12 03:50:51;;;;;;;100.25;30.55;;;;;;;;;;4998427;28;20536;-76
2022/01/12 03:53:17;;;;;;;114.72;33.88;;;3.50;99.90;;;;;;4999177;28;20580;-76
2022/01/12 03:55:43;;;;;;;84.75;25.70;;;3.40;99.90;;;;;;4998391;28;20126;-76
2022/01/12 03:58:12;;;;;;;145.52;34.88;;;3.40;99.90;;;;;;5014152;28;20103;-75
2022/01/12 04:00:38;;;;;;;90.63;26.27;;;;;;;;;;4997590;28;20042;-75
2022/01/12 04:03:06;;;;;;;73.47;24.85;;;;;;;;;;4997465;28;20034;-74
2022/01/12 04:08:21;;;;;;;97.95;26.63;;;;;;;;;;5014127;28;20050;-75
2022/01/12 04:10:47;;;;;;;78.00;24.83;;;;;;;;;;4997242;28;20038;-75
2022/01/12 04:13:14;;;;;;;100.80;27.88;;;;;;;;;;4997397;28;20125;-75
2022/01/12 04:15:40;;;;;;;130.18;31.30;;;;;;;;;;4997670;28;20045;-75
2022/01/12 04:18:06;;;;;;;186.48;29.08;;;;;;;;;;4997371;28;20042;-76
2022/01/12 04:20:32;;;;;;;150.40;24.92;;;2.90;99.90;;;;;;4997204;28;20100;-76
2022/01/12 04:25:42;;;;;;;75.03;20.95;;;;;;;;;;5013319;28;20045;-75
2022/01/12 04:28:08;;;;;;;131.65;27.67;;;;;;;;;;4997186;28;20052;-75
2022/01/12 04:30:34;;;;;;;56.85;19.95;;;;;;;;;;5012999;28;20186;-75
2022/01/12 04:33:00;;;;;;;56.42;19.13;;;;;;;;;;4996978;28;20065;-76
2022/01/12 04:35:31;;;;;;;143.48;24.88;;;;;;;;;;4996782;28;20169;-75
2022/01/12 04:37:57;;;;;;;97.20;20.55;;;2.80;99.90;;;;;;4997032;28;20044;-75
2022/01/12 04:40:23;;;;;;;90.50;20.08;;;2.80;99.90;;;;;;4996618;28;20038;-75
2022/01/12 04:42:49;;;;;;;109.93;19.35;;;;;;;;;;4997194;28;20049;-76
2022/01/12 04:50:23;;;;;;;103.32;18.00;;;2.70;99.90;;;;;;5012777;28;20049;-74
2022/01/12 04:52:49;;;;;;;100.97;18.40;;;;;;;;;;4996679;28;20513;-75
2022/01/12 04:55:15;;;;;;;125.28;17.67;;;;;;;;;;5012851;28;20042;-75
2022/01/12 04:57:41;;;;;;;193.45;19.15;;;;;;;;;;4995554;28;20073;-75
2022/01/12 05:00:14;;;;;;;228.07;20.73;;;2.80;99.90;;;;;;4996384;28;20457;-74
2022/01/12 05:08:22;;;;;;;218.27;21.25;;;;;;;;;;5012721;28;20053;-76
2022/01/12 05:13:34;;;;;;;111.53;12.48;;;2.80;99.90;;;;;;5012948;28;20050;-76
2022/01/12 05:16:04;;;;;;;67.47;10.73;;;;;;;;;;4996521;28;20524;-75
2022/01/12 05:18:30;;;;;;;47.53;9.68;;;;;;;;;;4996586;28;20417;-74
2022/01/12 05:20:56;;;;;;;53.55;9.55;;;;;;;;;;4995919;28;20065;-75
2022/01/12 05:23:23;;;;;;;41.25;9.00;;;;;;;;;;4996328;28;20049;-75
2022/01/12 05:25:51;;;;;;;38.50;8.63;;;;;;;;;;4995884;28;20048;-73
2022/01/12 05:28:17;;;;;;;43.08;9.43;;;;;;;;;;4996098;28;20046;-73
2022/01/12 05:30:43;;;;;;;44.40;9.50;;;;;;;;;;4995603;28;20042;-74
2022/01/12 05:33:10;;;;;;;36.47;8.27;;;2.30;99.90;;;;;;4995747;28;20539;-74
2022/01/12 05:35:36;;;;;;;28.85;8.50;;;2.30;99.90;;;;;;4995987;28;20049;-74
2022/01/12 05:38:03;;;;;;;58.03;8.80;;;2.50;99.90;;;;;;4995852;28;20073;-75
2022/01/12 05:40:30;;;;;;;62.85;8.25;;;;;;;;;;4995622;28;20044;-75
2022/01/12 05:42:58;;;;;;;76.82;10.00;;;;;;;;;;4995634;28;20038;-75
2022/01/12 05:45:24;;;;;;;66.00;8.40;;;;;;;;;;4995968;28;20136;-73
2022/01/12 05:50:18;;;;;;;75.07;8.18;;;2.60;99.90;;;;;;5011794;28;20085;-75
2022/01/12 05:52:44;;;;;;;85.22;9.35;;;;;;;;;;4995464;28;20038;-72
2022/01/12 05:55:12;;;;;;;86.28;8.25;;;2.50;99.90;;;;;;4995413;28;20218;-73
2022/01/12 05:57:38;;;;;;;68.07;7.90;;;;;;;;;;4995613;28;20466;-73
2022/01/12 06:00:08;;;;;;;79.63;8.38;;;2.60;99.90;;;;;;4995103;28;20409;-73
2022/01/12 06:02:34;;;;;;;145.40;9.82;;;;;;;;;;4995259;28;20045;-73
2022/01/12 06:05:00;;;;;;;69.38;7.82;;;2.50;99.90;;;;;;5011618;28;20053;-73
2022/01/12 06:07:25;;;;;;;117.75;10.32;;;2.40;99.90;;;;;;4995100;28;20034;-74
2022/01/12 06:09:51;;;;;;;96.03;8.77;;;;;;;;;;4995203;28;20089;-73
2022/01/12 06:12:17;;;;;;;79.30;8.10;;;2.70;99.90;;;;;;4995116;28;20042;-74
2022/01/12 06:14:44;;;;;;;82.30;7.43;;;;;;;;;;4995103;28;20053;-75
2022/01/12 06:17:10;;;;;;;90.82;7.50;;;;;;;;;;4995146;28;20065;-74
2022/01/12 06:19:36;;;;;;;89.20;7.43;;;2.50;99.90;;;;;;4994717;28;20088;-73
2022/01/12 06:22:03;;;;;;;42.25;6.03;;;2.70;99.90;;;;;;4994892;28;20084;-74
2022/01/12 06:24:29;;;;;;;58.63;6.15;;;;;;;;;;4994973;28;20553;-74
2022/01/12 06:26:55;;;;;;;26.70;4.95;;;2.60;99.90;;;;;;4995897;28;20488;-74
2022/01/12 06:31:49;;;;;;;45.42;6.78;;;;;;;;;;5011283;28;20050;-74
2022/01/12 06:34:15;;;;;;;43.45;6.25;;;2.60;99.90;;;;;;4994877;28;20041;-74
2022/01/12 06:36:42;;;;;;;38.92;5.28;;;;;;;;;;4994982;28;20069;-74
2022/01/12 06:39:10;;;;;;;66.35;6.40;;;2.60;99.90;;;;;;4994722;28;20034;-73
2022/01/12 06:41:37;;;;;;;51.85;5.63;;;;;;;;;;4994924;28;20401;-74
2022/01/12 06:44:03;;;;;;;63.05;6.45;;;;;;;;;;4995348;28;20038;-74
2022/01/12 06:46:31;;;;;;;54.03;5.75;;;;;;;;;;4994453;28;20050;-74
2022/01/12 06:48:57;;;;;;;71.15;6.50;;;;;;;;;;4994375;28;20042;-74
2022/01/12 06:51:23;;;;;;;34.20;4.60;;;;;;;;;;5002639;28;20509;-74
2022/01/12 06:53:49;;;;;;;49.30;5.90;;;;;;;;;;5003751;28;20422;-74
2022/01/12 06:56:17;;;;;;;59.15;5.80;;;;;;;;;;5002844;28;20444;-74
2022/01/12 06:58:46;;;;;;;107.88;7.93;;;;;;;;;;4997575;28;20402;-74
2022/01/12 07:01:12;;;;;;;107.85;7.68;;;;;;;;;;4988979;28;20100;-72
2022/01/12 07:03:38;;;;;;;113.43;7.65;;;;;;;;;;4992988;28;20041;-75
2022/01/12 07:06:04;;;;;;;126.15;7.65;;;;;;;;;;5011713;28;20509;-73
2022/01/12 07:08:32;;;;;;;107.63;8.07;;;;;;;;;;5015667;28;20746;-74
2022/01/12 07:10:58;;;;;;;84.22;6.60;;;;;;;;;;5018710;28;20497;-73
2022/01/12 07:13:25;;;;;;;121.68;7.00;;;;;;;;;;5027141;28;20045;-74
2022/01/12 07:15:51;;;;;;;144.68;7.65;;;;;;;;;;5018657;28;20057;-73
2022/01/12 07:18:19;;;;;;;91.05;6.47;;;;;;;;;;5018678;28;20030;-73
2022/01/12 07:20:45;;;;;;;111.45;6.72;;;;;;;;;;5016016;28;20373;-74
2022/01/12 07:23:11;;;;;;;57.53;5.90;;;2.40;99.90;;;;;;5033611;28;20037;-72
2022/01/12 07:25:37;;;;;;;66.15;5.35;;;;;;;;;;5033771;28;20040;-73
2022/01/12 07:28:03;;;;;;;104.85;6.90;;;;;;;;;;5017931;28;20034;-72
2022/01/12 07:30:32;;;;;;;46.30;5.35;;;;;;;;;;5026383;28;20044;-74
2022/01/12 07:32:58;;;;;;;110.00;7.15;;;;;;;;;;5016258;28;20033;-73
2022/01/12 07:35:24;;;;;;;96.68;6.50;;;;;;;;;;5000019;28;20460;-73
2022/01/12 07:37:51;;;;;;;86.90;6.15;;;;;;;;;;4999564;28;20042;-74
2022/01/12 07:40:17;;;;;;;72.18;5.43;;;;;;;;;;5000150;28;20040;-75
2022/01/12 07:42:44;;;;;;;43.67;5.38;;;2.70;99.90;;;;;;5021143;28;20116;-74
2022/01/12 07:45:09;;;;;;;73.60;6.47;;;2.70;99.90;;;;;;5020144;28;20049;-74
2022/01/12 07:47:35;;;;;;;96.03;7.28;;;2.60;99.90;;;;;;5036894;28;20384;-74
2022/01/12 07:50:03;;;;;;;39.15;5.60;;;2.90;99.90;;;;;;5021113;28;20034;-74
2022/01/12 07:52:30;;;;;;;119.75;7.80;;;;;;;;;;5022909;28;20494;-74
2022/01/12 07:54:56;;;;;;;84.65;7.28;;;;;;;;;;5003614;28;20029;-75
2022/01/12 07:57:22;;;;;;;209.27;13.77;;;2.80;99.90;;;;;;5009303;28;20051;-74
2022/01/12 07:59:48;;;;;;;61.63;6.70;;;;;;;;;;5008629;28;20030;-74
2022/01/12 08:02:14;;;;;;;82.35;6.82;;;;;;;;;;5029319;28;20517;-75
2022/01/12 08:04:40;;;;;;;77.95;7.03;;;;;;;;;;5000463;28;20038;-77
2022/01/12 08:07:07;;;;;;;142.02;13.07;;;;;;;;;;5017785;28;20033;-73
2022/01/12 08:09:33;;;;;;;151.57;13.60;;;;;;;;;;5001101;28;20046;-74
2022/01/12 08:11:59;;;;;;;65.78;7.90;;;;;;;;;;5016313;28;20500;-74
2022/01/12 08:14:25;;;;;;;69.90;7.13;;;;;;;;;;4999796;28;20041;-74
2022/01/12 08:16:51;;;;;;;61.20;7.40;;;;;;;;;;5001897;28;20060;-74
2022/01/12 08:19:19;;;;;;;117.90;10.38;;;;;;;;;;5018068;28;20037;-75
2022/01/12 08:21:45;;;;;;;110.22;9.32;;;;;;;;;;5016759;28;20042;-76
2022/01/12 08:24:12;;;;;;;77.68;8.82;;;;;;;;;;5018506;28;20036;-75
2022/01/12 08:26:38;;;;;;;102.13;8.18;;;;;;;;;;5019822;28;20369;-74
2022/01/12 08:29:04;;;;;;;69.95;7.45;;;;;;;;;;5035133;28;20148;-74
2022/01/12 08:31:30;;;;;;;121.32;9.10;;;;;;;;;;4998192;28;20125;-75
2022/01/12 08:33:56;;;;;;;54.35;6.03;;;;;;;;;;5002398;28;20041;-74
2022/01/12 08:36:22;;;;;;;103.50;7.95;;;;;;;;;;4997316;28;20195;-75
2022/01/12 08:38:48;;;;;;;86.63;7.35;;;;;;;;;;5013445;28;20044;-76
2022/01/12 08:41:14;;;;;;;126.28;8.20;;;;;;;;;;5012736;28;20037;-76
2022/01/12 08:43:40;;;;;;;123.20;8.23;;;;;;;;;;5029607;28;20103;-75
2022/01/12 08:46:06;;;;;;;78.10;6.97;;;;;;;;;;5013109;28;20124;-75
2022/01/12 08:48:32;;;;;;;84.68;6.93;;;;;;;;;;5012876;28;20080;-76
2022/01/12 08:50:58;;;;;;;135.45;8.63;;;;;;;;;;4999766;28;20061;-77
2022/01/12 08:53:25;;;;;;;152.20;9.23;;;;;;;;;;5013188;28;20457;-76
2022/01/12 08:55:50;;;;;;;108.80;7.43;;;3.20;99.90;;;;;;5012950;28;20072;-77
2022/01/12 08:58:16;;;;;;;127.65;8.60;;;;;;;;;;4996370;28;20069;-76
2022/01/12 09:00:42;;;;;;;119.72;8.05;;;;;;;;;;5012383;28;20080;-76
2022/01/12 09:03:08;;;;;;;102.50;7.32;;;;;;;;;;5009330;28;20026;-76
2022/01/12 09:05:34;;;;;;;68.90;6.13;;;3.40;99.90;;;;;;4999096;28;20505;-76
2022/01/12 09:08:00;;;;;;;72.07;6.18;;;;;;;;;;5013781;28;20052;-75
2022/01/12 09:10:26;;;;;;;82.82;6.85;;;;;;;;;;5012470;28;20038;-75
2022/01/12 09:12:52;;;;;;;90.47;6.70;;;;;;;;;;5014118;28;20052;-74
2022/01/12 09:15:24;;;;;;;68.20;6.18;;;;;;;;;;5021381;28;20384;-74
2022/01/12 09:17:50;;;;;;;62.70;6.03;;;;;;;;;;5020990;28;20725;-74
2022/01/12 09:20:16;;;;;;;54.13;6.10;;;;;;;;;;5023989;28;20113;-75
2022/01/12 09:22:42;;;;;;;66.38;6.47;;;3.50;99.90;;;;;;5032418;28;20033;-74
2022/01/12 09:25:09;;;;;;;97.70;6.43;;;3.50;99.90;;;;;;5012684;28;20044;-74
2022/01/12 09:27:35;;;;;;;59.17;5.47;;;;;;;;;;5010028;28;20481;-74
2022/01/12 09:30:01;;;;;;;61.30;5.85;;;;;;;;;;4995595;28;20037;-75
2022/01/12 09:32:27;;;;;;;50.80;5.15;;;;;;;;;;5012369;28;20503;-74
2022/01/12 09:34:53;;;;;;;49.47;5.22;;;;;;;;;;5012092;28;20042;-75
2022/01/12 09:37:21;;;;;;;60.83;5.57;;;3.80;99.90;;;;;;5020213;28;20127;-74
2022/01/12 09:39:46;;;;;;;49.30;4.70;;;3.80;99.90;;;;;;5014929;28;20029;-74
2022/01/12 09:42:12;;;;;;;45.17;5.03;;;;;;;;;;5031190;28;20175;-76
2022/01/12 09:44:43;;;;;;;39.05;5.07;;;;;;;;;;5033549;28;20100;-75
2022/01/12 09:47:09;;;;;;;47.50;5.05;;;3.90;99.90;;;;;;5032477;28;20037;-74
2022/01/12 09:49:35;;;;;;;44.60;4.82;;;;;;;;;;5015017;28;20038;-75
2022/01/12 09:52:01;;;;;;;52.80;5.95;;;;;;;;;;4995534;28;20052;-72
2022/01/12 09:54:27;;;;;;;33.13;5.20;;;;;;;;;;5017537;28;20049;-73
2022/01/12 09:56:54;;;;;;;72.68;7.13;;;;;;;;;;5003285;28;20065;-74
2022/01/12 09:59:21;;;;;;;88.15;7.72;;;3.90;99.90;;;;;;5005382;28;20404;-74
2022/01/12 10:01:48;;;;;;;61.05;5.75;;;;;;;;;;5020945;28;20038;-74
2022/01/12 10:04:27;;;;;;;116.95;9.75;;;4.10;99.90;;;;;;5006347;28;20029;-74
2022/01/12 10:06:58;;;;;;;70.30;7.47;;;4.10;99.90;;;;;;5018877;28;20451;-74
2022/01/12 10:09:26;;;;;;;80.53;7.53;;;;;;;;;;5011343;28;20034;-74
2022/01/12 10:11:56;;;;;;;70.70;6.55;;;;;;;;;;4994715;28;20060;-74
2022/01/12 10:14:23;;;;;;;71.60;6.32;;;4.20;99.90;;;;;;4999332;28;20073;-74
2022/01/12 10:16:55;;;;;;;72.15;7.53;;;4.10;99.90;;;;;;5011408;28;20038;-74
2022/01/12 10:19:25;;;;;;;77.78;8.30;;;;;;;;;;5011135;28;20085;-74
2022/01/12 10:21:51;;;;;;;67.38;7.72;;;;;;;;;;5011008;28;20072;-74
2022/01/12 10:24:19;;;;;;;81.85;7.82;;;;;;;;;;5015443;28;20481;-77
2022/01/12 10:26:46;;;;;;;47.08;6.88;;;4.40;99.90;;;;;;5014118;28;20493;-76
2022/01/12 10:29:17;;;;;;;84.18;8.15;;;4.40;99.90;;;;;;5030734;28;20037;-72
2022/01/12 10:32:15;;;;;;;104.25;9.75;;;;;;;;;;5031272;28;20037;-75
2022/01/12 10:34:41;;;;;;;77.53;8.55;;;;;;;;;;4981836;28;20045;-76
2022/01/12 10:37:09;;;;;;;72.07;7.65;;;4.70;99.90;;;;;;5022541;28;20048;-76
2022/01/12 10:39:39;;;;;;;44.22;6.65;;;;;;;;;;5012663;28;20396;-76
2022/01/12 10:42:11;;;;;;;30.52;6.65;;;4.70;99.90;;;;;;4994020;28;20045;-76
2022/01/12 10:44:44;;;;;;;49.47;6.63;;;;;;;;;;4998988;28;20030;-75
2022/01/12 10:47:20;;;;;;;32.10;6.28;;;;;;;;;;5014273;28;20614;-76
2022/01/12 10:49:52;;;;;;;42.05;6.70;;;;;;;;;;5012418;28;20040;-77
2022/01/12 10:52:19;;;;;;;30.63;6.30;;;;;;;;;;4994714;28;20046;-77
2022/01/12 10:54:48;;;;;;;37.83;6.55;;;;;;;;;;5009527;28;20044;-76
2022/01/12 10:57:15;;;;;;;46.25;8.30;;;;;;;;;;5009585;28;20489;-76
2022/01/12 10:59:41;;;;;;;21.60;6.22;;;;;;;;;;5008404;28;20529;-73
2022/01/12 11:02:07;;;;;;;29.42;6.32;;;;;;;;;;5010514;28;20034;-77
2022/01/12 11:04:35;;;;;;;19.58;5.78;;;;;;;;;;5026884;28;20523;-76
2022/01/12 11:07:01;;;;;;;22.45;6.03;;;;;;;;;;5009690;28;20395;-77
2022/01/12 11:09:27;;;;;;;31.83;6.72;;;;;;;;;;5010061;28;20042;-77
2022/01/12 11:11:53;;;;;;;30.77;6.05;;;;;;;;;;5001028;28;20041;-77
2022/01/12 11:14:19;;;;;;;28.70;5.80;;;5.10;99.90;;;;;;5021080;28;20081;-77
2022/01/12 11:16:45;;;;;;;35.97;6.40;;;;;;;;;;5010668;28;20449;-78
2022/01/12 11:19:11;;;;;;;17.10;5.55;;;5.00;99.90;;;;;;5009388;28;20045;-76
2022/01/12 11:21:41;;;;;;;31.73;6.55;;;5.20;99.90;;;;;;5010449;28;20073;-78
2022/01/12 11:24:10;;;;;;;20.25;5.13;;;;;;;;;;4993870;28;20045;-76
2022/01/12 11:26:36;;;;;;;42.60;7.35;;;;;;;;;;4997563;28;20046;-76
2022/01/12 11:29:04;;;;;;;28.73;6.55;;;;;;;;;;5010029;28;20042;-77
2022/01/12 11:31:32;;;;;;;27.77;5.95;;;;;;;;;;5005478;28;20124;-77
2022/01/12 11:33:59;;;;;;;20.40;5.15;;;;;;;;;;4990803;28;20497;-76
2022/01/12 11:36:27;;;;;;;25.10;5.65;;;;;;;;;;4991126;28;20045;-76
2022/01/12 11:39:01;;;;;;;23.90;6.65;;;;;;;;;;4990864;28;20073;-77
2022/01/12 11:41:28;;;;;;;;;;;5.20;99.90;;;;;;4991465;28;20358;-76
2022/01/12 11:43:58;;;;;;;19.15;5.07;;;;;;;;;;4992555;28;19972;-78
2022/01/12 11:46:25;;;;;;;26.85;6.85;;;;;;;;;;4990937;28;20363;-77
2022/01/12 11:49:00;;;;;;;20.67;5.50;;;;;;;;;;4993165;28;20073;-75
2022/01/12 11:51:37;;;;;;;18.90;5.72;;;;;;;;;;4990297;28;20522;-76
2022/01/12 11:54:15;;;;;;;29.08;8.65;;;5.20;99.90;;;;;;5002457;28;20132;-76
2022/01/12 11:56:59;;;;;;;23.17;6.15;;;;;;;;;;5009877;28;20729;-76
2022/01/12 11:59:27;;;;;;;17.83;6.13;;;;;;;;;;5010026;28;20048;-76
2022/01/12 12:01:54;;;;;;;22.50;6.38;;;;;;;;;;5003879;28;20037;-76
2022/01/12 12:04:27;;;;;;;22.00;6.18;;;;;;;;;;5023221;28;20050;-75
2022/01/12 12:07:14;;;;;;;21.98;7.28;;;5.30;99.90;;;;;;5023129;28;20073;-77
2022/01/12 12:09:40;;;;;;;25.08;7.60;;;;;;;;;;5010253;28;20041;-77
2022/01/12 12:12:15;;;;;;;19.30;6.90;;;;;;;;;;5000643;28;20076;-77
2022/01/12 12:14:42;;;;;;;26.23;7.32;;;;;;;;;;5006422;28;20329;-77
2022/01/12 12:17:09;;;;;;;26.08;7.20;;;;;;;;;;5013854;28;20041;-76
2022/01/12 12:19:37;;;;;;;29.63;7.72;;;;;;;;;;5020063;28;20057;-77
2022/01/12 12:22:29;;;;;;;28.50;8.73;;;;;;;;;;5016746;28;20105;-76
2022/01/12 12:24:58;;;;;;;25.80;9.73;;;;;;;;;;5011671;28;20049;-78
2022/01/12 12:27:28;;;;;;;34.53;10.38;;;5.60;99.90;;;;;;5014522;28;20600;-77
2022/01/12 12:29:55;;;;;;;25.25;8.27;;;;;;;;;;5013341;28;20048;-77
2022/01/12 12:32:33;;;;;;;25.73;8.70;;;;;;;;;;5013635;28;20055;-76
2022/01/12 12:35:00;;;;;;;26.25;9.10;;;;;;;;;;5013346;28;20068;-77
2022/01/12 12:37:33;;;;;;;29.42;10.40;;;;;;;;;;5012832;28;20041;-75
2022/01/12 12:40:10;;;;;;;25.75;8.27;;;5.70;99.90;;;;;;5008385;28;20121;-77
2022/01/12 12:42:38;;;;;;;27.85;9.73;;;;;;;;;;5019155;28;20034;-77
2022/01/12 12:45:04;;;;;;;37.72;10.73;;;;;;;;;;5009693;28;20504;-76
2022/01/12 12:47:31;;;;;;;27.58;9.75;;;5.80;99.90;;;;;;5001058;28;20129;-76
2022/01/12 12:50:12;;;;;;;34.78;10.02;;;;;;;;;;4997252;28;20383;-78
2022/01/12 12:52:39;;;;;;;30.98;11.90;;;;;;;;;;4997605;28;20097;-77
2022/01/12 12:55:12;;;;;;;31.90;11.45;;;;;;;;;;4996578;28;20544;-77
2022/01/12 12:57:49;;;;;;;27.25;11.80;;;;;;;;;;4996380;28;20042;-78
2022/01/12 13:00:17;;;;;;;31.60;12.90;;;6.00;99.90;;;;;;4996016;28;20505;-78
2022/01/12 13:02:45;;;;;;;35.83;12.48;;;;;;;;;;4996391;28;20037;-77
2022/01/12 13:05:14;;;;;;;56.15;13.70;;;5.90;99.90;;;;;;4996644;28;20044;-78
2022/01/12 13:07:42;;;;;;;52.70;13.68;;;;;;;;;;5014419;28;20042;-77
2022/01/12 13:10:13;;;;;;;44.55;13.57;;;;;;;;;;5029290;28;20037;-78
2022/01/12 13:12:39;;;;;;;41.05;14.27;;;;;;;;;;5014585;28;20064;-76
2022/01/12 13:15:07;;;;;;;43.38;13.10;;;;;;;;;;5005474;28;20034;-76
2022/01/12 13:17:34;;;;;;;44.72;12.40;;;6.00;99.90;;;;;;4992808;28;20472;-77
2022/01/12 13:22:30;;;;;;;57.58;14.65;;;;;;;;;;5011868;28;20046;-77
2022/01/12 13:24:58;;;;;;;67.93;13.30;;;5.90;99.90;;;;;;4992814;28;20104;-77
2022/01/12 13:27:25;;;;;;;52.47;11.93;;;;;;;;;;4995484;28;20045;-79
2022/01/12 13:29:51;;;;;;;48.15;14.75;;;;;;;;;;5008981;28;20444;-77
2022/01/12 13:32:17;;;;;;;75.68;14.85;;;;;;;;;;5009789;28;20030;-77
2022/01/12 13:35:09;;;;;;;67.80;13.68;;;5.90;99.90;;;;;;5010937;28;20394;-78
2022/01/12 13:37:35;;;;;;;30.27;11.77;;;;;;;;;;5008464;28;20179;-77
2022/01/12 13:40:05;;;;;;;63.97;12.85;;;;;;;;;;5009219;28;20040;-77
2022/01/12 13:42:44;;;;;;;33.97;12.30;;;5.60;99.90;;;;;;5009473;28;20041;-77
2022/01/12 13:45:15;;;;;;;40.40;10.88;;;5.90;99.90;;;;;;5011958;28;20045;-77
2022/01/12 13:47:42;;;;;;;88.22;15.43;;;;;;;;;;5011175;28;20129;-77
2022/01/12 13:50:09;;;;;;;70.28;13.68;;;5.70;99.90;;;;;;4995400;28;20563;-77
2022/01/12 13:52:36;;;;;;;49.50;12.38;;;;;;;;;;4995483;28;20034;-77
2022/01/12 13:55:12;;;;;;;77.72;14.95;;;5.90;99.90;;;;;;4995215;28;20042;-77
2022/01/12 13:57:38;;;;;;;26.17;11.27;;;;;;;;;;4995664;28;20048;-77
2022/01/12 14:00:06;;;;;;;40.50;11.20;;;5.90;99.90;;;;;;5011692;28;20046;-77
2022/01/12 14:02:41;;;;;;;65.07;12.27;;;;;;;;;;5013222;28;20497;-77
2022/01/12 14:05:08;;;;;;;59.38;11.95;;;;;;;;;;5031718;28;20045;-77
2022/01/12 14:07:39;;;;;;;50.88;11.25;;;;;;;;;;5014932;28;20044;-77
2022/01/12 14:10:06;;;;;;;58.75;10.50;;;;;;;;;;5010643;28;20038;-78
2022/01/12 14:12:33;;;;;;;54.05;10.77;;;5.60;99.90;;;;;;4994432;28;20489;-78
2022/01/12 14:15:00;;;;;;;50.17;10.85;;;;;;;;;;5011553;28;20037;-78
2022/01/12 14:17:32;;;;;;;66.57;10.82;;;;;;;;;;4995053;28;20041;-78
2022/01/12 14:20:10;;;;;;;59.05;11.35;;;;;;;;;;4994698;28;20120;-79
2022/01/12 14:23:05;;;;;;;59.28;11.27;;;;;;;;;;5011321;28;20042;-78
2022/01/12 14:25:35;;;;;;;50.30;10.40;;;;;;;;;;4994392;28;20085;-78
2022/01/12 14:28:01;;;;;;;65.28;10.57;;;;;;;;;;5011259;28;20049;-77
2022/01/12 14:30:27;;;;;;;46.75;9.68;;;;;;;;;;5011023;28;20038;-78
2022/01/12 14:32:53;;;;;;;45.63;9.43;;;5.50;99.90;;;;;;5011257;28;20044;-78
2022/01/12 14:35:21;;;;;;;53.65;9.57;;;5.50;99.90;;;;;;4994943;28;20073;-78
2022/01/12 14:37:47;;;;;;;60.80;9.93;;;;;;;;;;5010830;28;20485;-78
2022/01/12 14:40:14;;;;;;;68.00;10.45;;;;;;;;;;4994421;28;20176;-78
2022/01/12 14:42:44;;;;;;;60.35;10.55;;;;;;;;;;5011092;28;20045;-78
2022/01/12 14:45:11;;;;;;;68.20;10.90;;;5.50;99.90;;;;;;4994897;28;20041;-78
2022/01/12 14:47:37;;;;;;;57.72;11.38;;;5.70;99.90;;;;;;5010862;28;20552;-77
2022/01/12 14:50:03;;;;;;;54.58;10.82;;;5.60;99.90;;;;;;5010476;28;20129;-78
2022/01/12 14:52:29;;;;;;;31.95;10.13;;;5.60;99.90;;;;;;5010404;28;20042;-77
2022/01/12 14:54:54;;;;;;;75.22;12.27;;;5.50;99.90;;;;;;5010993;28;20034;-77
2022/01/12 14:57:20;;;;;;;50.20;10.57;;;;;;;;;;5010930;28;20036;-78
2022/01/12 14:59:46;;;;;;;46.65;10.70;;;;;;;;;;4994448;28;20072;-78
2022/01/12 15:02:12;;;;;;;55.45;11.57;;;;;;;;;;5026300;28;20480;-78
2022/01/12 15:04:38;;;;;;;40.20;11.70;;;;;;;;;;5047285;28;20041;-77
2022/01/12 15:07:04;;;;;;;67.57;14.63;;;5.50;99.90;;;;;;5030342;28;20038;-78
2022/01/12 15:09:31;;;;;;;49.08;12.43;;;;;;;;;;5030271;28;20492;-78
2022/01/12 15:11:57;;;;;;;36.20;11.65;;;;;;;;;;5014029;28;20040;-77
2022/01/12 15:14:43;;;;;;;30.27;12.02;;;;;;;;;;5044226;28;20037;-78
2022/01/12 15:17:09;;;;;;;38.10;12.25;;;;;;;;;;5010734;28;20038;-77
2022/01/12 15:19:35;;;;;;;51.00;14.73;;;;;;;;;;5026723;28;20042;-77
2022/01/12 15:22:01;;;;;;;43.20;12.20;;;5.50;99.90;;;;;;5026507;28;20033;-77